Time;durP1;ratioP1;P1;durP2;ratioP2;P2;SDS_P1;SDS_P2;PMS_P1;PMS_P2;Temp;Humidity;BMP_temperature;BMP_pressure;BME280_temperature;BME280_humidity;BME280_pressure;Samples;Min_cycle;Max_cycle;Signal;HPM_P1;HPM_P2
2022/10/30 00:00:08;;;;;;;4.97;2.40;;;12.20;99.90;;;;;;6280149;22;20098;-85
2022/10/30 00:02:33;;;;;;;4.53;2.40;;;12.20;99.90;;;;;;6280336;22;20103;-86
2022/10/30 00:04:59;;;;;;;4.90;3.03;;;12.10;99.90;;;;;;6280180;22;20034;-86
2022/10/30 00:07:25;;;;;;;5.90;2.88;;;12.10;99.90;;;;;;6308130;22;20015;-85
2022/10/30 00:09:50;;;;;;;5.20;2.38;;;12.80;99.90;;;;;;6307668;22;20047;-85
2022/10/30 00:12:16;;;;;;;8.18;2.70;;;12.00;99.90;;;;;;6307625;22;20022;-85
2022/10/30 00:14:42;;;;;;;6.38;2.35;;;12.00;99.90;;;;;;6280698;22;20011;-86
2022/10/30 00:17:07;;;;;;;4.90;2.58;;;11.90;99.90;;;;;;6307045;22;20022;-86
2022/10/30 00:19:33;;;;;;;3.38;2.13;;;12.00;99.90;;;;;;6280690;22;20072;-85
2022/10/30 00:22:01;;;;;;;5.65;2.90;;;12.90;99.90;;;;;;6280693;22;20337;-85
2022/10/30 00:24:27;;;;;;;5.90;2.97;;;12.20;99.90;;;;;;6280239;22;20085;-86
2022/10/30 00:26:53;;;;;;;5.25;2.42;;;12.60;99.90;;;;;;6280055;22;20319;-86
2022/10/30 00:29:19;;;;;;;4.47;2.67;;;12.40;99.90;;;;;;6279839;22;20026;-86
2022/10/30 00:31:47;;;;;;;3.70;2.47;;;12.60;99.90;;;;;;6307520;22;20329;-86
2022/10/30 00:34:15;;;;;;;4.82;2.30;;;11.90;99.90;;;;;;6307391;22;20022;-85
2022/10/30 00:36:41;;;;;;;3.20;1.67;;;11.90;99.90;;;;;;6307518;22;20007;-85
2022/10/30 00:39:06;;;;;;;5.00;2.28;;;12.60;99.90;;;;;;6280145;22;20091;-85
2022/10/30 00:41:32;;;;;;;4.72;2.50;;;11.90;99.90;;;;;;6307326;22;20019;-85
2022/10/30 00:43:58;;;;;;;3.95;2.55;;;12.60;99.90;;;;;;6307469;22;20015;-86
2022/10/30 00:46:34;;;;;;;4.75;2.28;;;11.90;99.90;;;;;;6280170;22;20022;-85
2022/10/30 00:49:12;;;;;;;3.42;1.90;;;11.90;99.90;;;;;;6280083;22;20074;-85
2022/10/30 00:51:40;;;;;;;4.78;1.90;;;12.00;99.90;;;;;;6307614;22;20011;-85
2022/10/30 00:54:07;;;;;;;4.07;2.20;;;11.90;99.90;;;;;;6307642;22;20011;-85
2022/10/30 00:56:34;;;;;;;3.50;1.80;;;12.00;99.90;;;;;;6279413;22;20430;-85
2022/10/30 00:59:08;;;;;;;3.40;1.90;;;11.90;99.90;;;;;;6279293;22;20087;-86
2022/10/30 01:01:38;;;;;;;2.85;1.60;;;12.00;99.90;;;;;;6306952;22;20019;-86
2022/10/30 01:04:05;;;;;;;2.30;1.50;;;12.00;99.90;;;;;;6307471;22;20023;-86
2022/10/30 01:06:38;;;;;;;3.55;1.55;;;12.20;99.90;;;;;;6306973;22;20034;-85
2022/10/30 01:09:04;;;;;;;3.38;1.50;;;12.10;99.90;;;;;;6307505;22;20023;-86
2022/10/30 01:11:30;;;;;;;1.88;1.20;;;13.10;99.90;;;;;;6307032;22;20346;-86
2022/10/30 01:14:00;;;;;;;4.72;1.45;;;12.20;99.90;;;;;;6279306;22;20015;-86
2022/10/30 01:16:38;;;;;;;2.03;1.30;;;12.70;99.90;;;;;;6306901;22;20080;-85
2022/10/30 01:19:28;;;;;;;4.28;1.70;;;12.40;99.90;;;;;;6279595;22;20331;-86
2022/10/30 01:22:24;;;;;;;3.38;1.83;;;12.40;99.90;;;;;;6307325;22;20015;-86
2022/10/30 01:24:57;;;;;;;2.85;1.58;;;12.40;99.90;;;;;;6279647;22;20399;-86
2022/10/30 01:27:44;;;;;;;3.50;1.88;;;12.40;99.90;;;;;;6306698;22;20463;-86
2022/10/30 01:30:30;;;;;;;3.13;1.70;;;12.40;99.90;;;;;;6307516;22;20520;-85
2022/10/30 01:33:16;;;;;;;3.70;1.45;;;12.30;99.90;;;;;;6276153;22;20024;-86
2022/10/30 01:36:05;;;;;;;2.45;1.38;;;12.40;99.90;;;;;;6276050;22;20051;-86
2022/10/30 01:38:38;;;;;;;3.80;2.05;;;12.40;99.90;;;;;;6274098;22;20019;-86
2022/10/30 01:41:04;;;;;;;3.45;1.75;;;12.50;99.90;;;;;;6276069;22;20023;-86
2022/10/30 01:43:31;;;;;;;1.77;1.20;;;13.20;99.90;;;;;;6276027;22;20020;-85
2022/10/30 01:46:15;;;;;;;2.83;1.50;;;12.50;99.90;;;;;;6276376;22;20393;-86
2022/10/30 01:49:06;;;;;;;4.93;1.95;;;12.50;99.90;;;;;;6275862;22;20019;-85
2022/10/30 01:51:40;;;;;;;2.70;1.45;;;12.50;99.90;;;;;;6276030;22;20388;-85
2022/10/30 01:54:35;;;;;;;3.60;1.75;;;12.50;99.90;;;;;;6276196;22;20018;-86
2022/10/30 01:57:38;;;;;;;8.85;2.58;;;12.50;99.90;;;;;;6098387;23;20381;-86
2022/10/30 02:00:09;;;;;;;4.57;1.88;;;12.40;99.90;;;;;;6098462;23;20476;-85
2022/10/30 02:02:35;;;;;;;5.03;1.90;;;12.40;99.90;;;;;;6122750;23;20393;-85
2022/10/30 02:05:02;;;;;;;5.40;2.30;;;12.40;99.90;;;;;;6123197;23;20058;-85
2022/10/30 02:07:27;;;;;;;2.97;1.50;;;12.40;99.90;;;;;;6098597;23;20018;-85
2022/10/30 02:09:54;;;;;;;3.78;2.13;;;12.40;99.90;;;;;;6123023;23;20432;-85
2022/10/30 02:12:21;;;;;;;5.45;2.10;;;12.80;99.90;;;;;;6074738;23;20105;-85
2022/10/30 02:14:50;;;;;;;2.42;1.52;;;12.40;99.90;;;;;;6098298;23;20032;-85
2022/10/30 02:17:16;;;;;;;5.03;2.13;;;12.50;99.90;;;;;;6098172;23;20108;-85
2022/10/30 02:19:42;;;;;;;4.70;1.80;;;12.50;99.90;;;;;;6098577;23;20028;-84
2022/10/30 02:22:07;;;;;;;5.38;1.80;;;12.60;99.90;;;;;;6124873;23;20046;-85
2022/10/30 02:24:33;;;;;;;8.07;3.10;;;13.40;99.90;;;;;;6124775;23;20021;-85
2022/10/30 02:26:59;;;;;;;7.18;2.85;;;12.80;99.90;;;;;;6124068;23;20025;-85
2022/10/30 02:29:25;;;;;;;4.05;2.17;;;12.80;99.90;;;;;;6124731;23;20017;-85
2022/10/30 02:31:51;;;;;;;4.70;2.17;;;12.80;99.90;;;;;;6124200;23;20073;-85
2022/10/30 02:34:17;;;;;;;4.70;2.00;;;12.90;99.90;;;;;;6199513;22;20051;-85
2022/10/30 02:36:42;;;;;;;6.65;2.10;;;12.90;99.90;;;;;;6277708;22;20023;-85
2022/10/30 02:39:08;;;;;;;9.75;3.70;;;13.60;99.90;;;;;;6277674;22;20023;-85
2022/10/30 02:41:34;;;;;;;5.93;2.40;;;13.00;99.90;;;;;;6277568;22;20095;-85
2022/10/30 02:44:00;;;;;;;6.75;2.20;;;13.00;99.90;;;;;;6277609;22;20020;-85
2022/10/30 02:46:26;;;;;;;5.82;2.67;;;13.00;99.90;;;;;;6276119;22;20439;-86
2022/10/30 02:48:52;;;;;;;4.60;2.10;;;13.00;99.90;;;;;;6276956;22;20019;-86
2022/10/30 02:51:17;;;;;;;4.55;1.90;;;13.00;99.90;;;;;;6277850;22;20008;-85
2022/10/30 02:53:44;;;;;;;7.68;3.20;;;13.10;99.90;;;;;;6275837;22;20020;-85
2022/10/30 02:56:12;;;;;;;4.75;2.38;;;13.40;99.90;;;;;;6277226;22;20016;-85
2022/10/30 02:58:38;;;;;;;5.70;2.60;;;13.10;99.90;;;;;;6276532;22;20078;-86
2022/10/30 03:01:06;;;;;;;3.95;2.30;;;13.20;99.90;;;;;;6277244;22;20019;-86
2022/10/30 03:03:31;;;;;;;3.70;1.80;;;13.20;99.90;;;;;;6250001;22;20069;-86
2022/10/30 03:06:00;;;;;;;3.30;1.83;;;13.20;99.90;;;;;;6250149;22;20028;-86
2022/10/30 03:08:26;;;;;;;3.83;2.10;;;13.10;99.90;;;;;;6250252;22;20339;-85
2022/10/30 03:11:02;;;;;;;7.47;2.50;;;13.20;99.90;;;;;;6275752;22;20020;-85
2022/10/30 03:13:30;;;;;;;3.50;2.13;;;13.20;99.90;;;;;;6277459;22;20020;-85
2022/10/30 03:16:04;;;;;;;3.83;2.15;;;13.20;99.90;;;;;;6277354;22;20331;-86
2022/10/30 03:18:29;;;;;;;3.60;1.85;;;13.20;99.90;;;;;;6276828;22;20016;-85
2022/10/30 03:20:56;;;;;;;5.15;2.15;;;13.20;99.90;;;;;;6277170;22;20023;-85
2022/10/30 03:23:22;;;;;;;5.97;2.45;;;13.60;99.90;;;;;;6277515;22;20007;-85
2022/10/30 03:25:52;;;;;;;7.43;3.08;;;13.20;99.90;;;;;;6275751;22;20108;-86
2022/10/30 03:28:17;;;;;;;8.20;2.90;;;13.30;99.90;;;;;;6276630;22;20023;-85
2022/10/30 03:30:43;;;;;;;5.40;2.97;;;13.30;99.90;;;;;;6277126;22;20015;-85
2022/10/30 03:33:09;;;;;;;4.13;2.25;;;13.40;99.90;;;;;;6276961;22;20095;-86
2022/10/30 03:35:35;;;;;;;3.88;2.30;;;13.40;99.90;;;;;;6250000;22;20023;-85
2022/10/30 03:38:01;;;;;;;5.07;2.58;;;13.40;99.90;;;;;;6275056;22;20454;-85
2022/10/30 03:40:26;;;;;;;5.68;2.35;;;13.60;99.90;;;;;;6275405;22;20034;-86
2022/10/30 03:42:52;;;;;;;3.63;1.73;;;13.30;99.90;;;;;;6276705;22;20346;-86
2022/10/30 03:45:18;;;;;;;4.07;1.67;;;13.30;99.90;;;;;;6249917;22;20019;-86
2022/10/30 03:47:43;;;;;;;6.80;2.92;;;13.50;99.90;;;;;;6275069;22;20023;-86
2022/10/30 03:50:09;;;;;;;8.43;2.78;;;13.30;99.90;;;;;;6277042;22;20008;-85
2022/10/30 03:52:35;;;;;;;6.63;2.50;;;13.50;99.90;;;;;;6275542;22;20023;-86
2022/10/30 03:55:00;;;;;;;6.13;3.55;;;13.60;99.90;;;;;;6277168;22;20371;-85
2022/10/30 03:57:26;;;;;;;4.22;2.15;;;13.30;99.90;;;;;;6249233;22;20024;-85
2022/10/30 03:59:52;;;;;;;5.75;2.42;;;13.30;99.90;;;;;;6276015;22;20098;-86
2022/10/30 04:02:18;;;;;;;6.10;2.90;;;13.90;99.90;;;;;;6276481;22;20012;-85
2022/10/30 04:04:43;;;;;;;2.88;1.70;;;13.30;99.90;;;;;;6249311;22;20015;-86
2022/10/30 04:07:09;;;;;;;4.55;2.17;;;13.30;99.90;;;;;;6275351;22;20095;-86
2022/10/30 04:09:34;;;;;;;5.78;2.10;;;13.30;99.90;;;;;;6276722;22;20016;-86
2022/10/30 04:12:00;;;;;;;4.70;2.55;;;13.40;99.90;;;;;;6276485;22;20019;-86
2022/10/30 04:14:26;;;;;;;5.35;3.28;;;13.30;99.90;;;;;;6276771;22;20043;-86
2022/10/30 04:16:51;;;;;;;7.50;4.03;;;13.30;99.90;;;;;;6223672;22;20023;-85
2022/10/30 04:19:17;;;;;;;8.23;3.58;;;13.40;99.90;;;;;;6274712;22;20418;-85
2022/10/30 04:21:43;;;;;;;6.40;3.08;;;13.30;99.90;;;;;;6224295;22;20011;-85
2022/10/30 04:24:08;;;;;;;7.40;3.92;;;13.70;99.90;;;;;;6249352;22;20031;-85
2022/10/30 04:26:34;;;;;;;9.57;4.75;;;13.40;99.90;;;;;;6276388;22;20018;-86
2022/10/30 04:29:00;;;;;;;6.40;3.42;;;13.40;99.90;;;;;;6276279;22;20011;-86
2022/10/30 04:31:27;;;;;;;7.18;3.22;;;13.40;99.90;;;;;;6276680;22;20023;-85
2022/10/30 04:33:53;;;;;;;10.63;3.97;;;13.30;99.90;;;;;;6249482;22;20015;-86
2022/10/30 04:36:20;;;;;;;8.40;3.85;;;13.70;99.90;;;;;;6276786;22;20011;-85
2022/10/30 04:38:46;;;;;;;10.18;4.32;;;13.30;99.90;;;;;;6249471;22;20056;-85
2022/10/30 04:41:11;;;;;;;9.45;3.75;;;13.30;99.90;;;;;;6276757;22;20094;-85
2022/10/30 04:43:37;;;;;;;10.30;4.32;;;13.40;99.90;;;;;;6276327;22;20069;-85
2022/10/30 04:46:04;;;;;;;8.23;4.00;;;13.30;99.90;;;;;;6274672;22;20099;-86
2022/10/30 04:48:30;;;;;;;10.00;4.30;;;13.30;99.90;;;;;;6274762;22;20478;-86
2022/10/30 04:50:58;;;;;;;9.15;3.53;;;13.30;99.90;;;;;;6276786;22;20016;-85
2022/10/30 04:53:24;;;;;;;9.32;3.03;;;13.30;99.90;;;;;;6276537;22;20102;-86
2022/10/30 04:55:53;;;;;;;4.35;2.97;;;13.30;99.90;;;;;;6276106;22;20016;-85
2022/10/30 04:58:19;;;;;;;5.07;2.90;;;13.20;99.90;;;;;;6275619;22;20015;-85
2022/10/30 05:00:45;;;;;;;4.97;2.72;;;13.20;99.90;;;;;;6276113;22;20016;-85
2022/10/30 05:03:18;;;;;;;5.25;2.53;;;13.20;99.90;;;;;;6275051;22;20020;-85
2022/10/30 05:05:45;;;;;;;6.68;3.05;;;13.20;99.90;;;;;;6276327;22;20027;-85
2022/10/30 05:08:11;;;;;;;5.00;2.60;;;13.20;99.90;;;;;;6276556;22;20066;-86
2022/10/30 05:10:40;;;;;;;4.47;2.65;;;13.60;99.90;;;;;;6275842;22;20024;-86
2022/10/30 05:13:05;;;;;;;7.20;2.50;;;13.00;99.90;;;;;;6274275;22;20438;-85
2022/10/30 05:15:31;;;;;;;6.80;2.55;;;13.40;99.90;;;;;;6249006;22;20064;-85
2022/10/30 05:17:56;;;;;;;5.10;2.35;;;13.00;99.90;;;;;;6276268;22;20434;-85
2022/10/30 05:20:22;;;;;;;5.40;3.33;;;12.80;99.90;;;;;;6276236;22;20016;-85
2022/10/30 05:22:57;;;;;;;4.95;2.60;;;13.40;99.90;;;;;;6274358;22;20015;-86
2022/10/30 05:25:23;;;;;;;6.82;2.50;;;12.70;99.90;;;;;;6276156;22;20434;-85
2022/10/30 05:27:48;;;;;;;7.30;2.70;;;12.70;99.90;;;;;;6275871;22;20015;-85
2022/10/30 05:30:14;;;;;;;5.97;2.70;;;12.70;99.90;;;;;;6276383;22;20008;-85
2022/10/30 05:32:40;;;;;;;6.63;2.67;;;12.70;99.90;;;;;;6275788;22;20319;-85
2022/10/30 05:35:06;;;;;;;5.78;2.33;;;12.60;99.90;;;;;;6276548;22;20011;-85
2022/10/30 05:37:32;;;;;;;8.65;2.85;;;12.50;99.90;;;;;;6249407;22;20011;-85
2022/10/30 05:39:57;;;;;;;4.60;2.67;;;12.50;99.90;;;;;;6276634;22;20015;-85
2022/10/30 05:42:23;;;;;;;5.28;2.47;;;12.40;99.90;;;;;;6274587;22;20043;-85
2022/10/30 05:48:29;;;;;;;7.15;3.50;;;12.30;99.90;;;;;;6276345;22;20015;-85
2022/10/30 05:50:56;;;;;;;5.53;2.63;;;12.20;99.90;;;;;;6276709;22;20016;-85
2022/10/30 05:53:22;;;;;;;4.95;2.60;;;12.10;99.90;;;;;;6276505;22;20019;-85
2022/10/30 05:55:48;;;;;;;4.53;2.63;;;12.10;99.90;;;;;;6278451;22;20441;-85
2022/10/30 06:02:06;;;;;;;7.32;2.40;;;12.10;99.90;;;;;;6290205;22;20050;-85
2022/10/30 06:04:32;;;;;;;4.85;2.28;;;12.20;99.90;;;;;;6276937;22;20020;-85
2022/10/30 06:06:58;;;;;;;4.85;2.55;;;12.20;99.90;;;;;;6303559;22;20027;-85
2022/10/30 06:09:23;;;;;;;6.75;2.72;;;12.30;99.90;;;;;;6304425;22;20066;-85
2022/10/30 06:11:49;;;;;;;5.03;2.85;;;13.10;99.90;;;;;;6278286;22;20020;-86
2022/10/30 06:14:15;;;;;;;4.15;2.58;;;13.20;99.90;;;;;;6305048;22;20004;-86
2022/10/30 06:16:40;;;;;;;2.83;1.55;;;12.40;99.90;;;;;;6305169;22;20075;-86
2022/10/30 06:19:06;;;;;;;4.78;1.98;;;12.40;99.90;;;;;;6306165;22;20154;-86
2022/10/30 06:21:32;;;;;;;4.40;2.30;;;12.40;99.90;;;;;;6305536;22;20028;-86
2022/10/30 06:23:57;;;;;;;4.85;2.70;;;12.40;99.90;;;;;;6305331;22;20015;-85
2022/10/30 06:26:23;;;;;;;5.70;2.28;;;12.80;99.90;;;;;;6289486;22;20057;-85
2022/10/30 06:28:49;;;;;;;3.78;2.13;;;12.30;99.90;;;;;;6278611;22;20016;-85
2022/10/30 06:31:15;;;;;;;5.07;2.65;;;12.20;99.90;;;;;;6279373;22;20397;-85
2022/10/30 06:33:40;;;;;;;7.50;3.08;;;12.80;99.90;;;;;;6251483;22;20067;-85
2022/10/30 06:36:06;;;;;;;7.78;2.80;;;12.00;99.90;;;;;;6279036;22;20019;-85
2022/10/30 06:38:32;;;;;;;5.05;2.70;;;12.00;99.90;;;;;;6278082;22;20020;-85
2022/10/30 06:40:57;;;;;;;6.85;2.85;;;12.80;99.90;;;;;;6278025;22;20020;-85
2022/10/30 06:43:23;;;;;;;6.97;3.30;;;11.90;99.90;;;;;;6252678;22;20015;-85
2022/10/30 06:45:49;;;;;;;6.90;2.83;;;11.80;99.90;;;;;;6277351;22;20028;-85
2022/10/30 06:48:15;;;;;;;5.15;3.00;;;11.80;99.90;;;;;;6250717;22;20461;-85
2022/10/30 06:50:40;;;;;;;7.95;2.47;;;11.80;99.90;;;;;;6277945;22;20015;-86
2022/10/30 06:53:06;;;;;;;6.22;2.72;;;11.80;99.90;;;;;;6276077;22;20048;-85
2022/10/30 06:55:31;;;;;;;11.10;4.22;;;11.90;99.90;;;;;;6277668;22;20316;-86
2022/10/30 06:57:57;;;;;;;7.90;4.13;;;12.20;99.90;;;;;;6277383;22;20081;-86
2022/10/30 07:00:23;;;;;;;7.57;3.33;;;12.00;99.90;;;;;;6275793;22;20019;-86
2022/10/30 07:02:57;;;;;;;4.72;2.90;;;12.10;99.90;;;;;;6250232;22;20059;-86
2022/10/30 07:05:23;;;;;;;4.63;2.78;;;12.10;99.90;;;;;;6277100;22;20094;-86
2022/10/30 07:07:48;;;;;;;3.67;2.13;;;12.20;99.90;;;;;;6277607;22;20442;-86
2022/10/30 07:10:14;;;;;;;5.47;2.22;;;12.50;99.90;;;;;;6278083;22;20016;-86
2022/10/30 07:12:40;;;;;;;6.90;2.47;;;12.20;99.90;;;;;;6277700;22;20456;-86
2022/10/30 07:15:06;;;;;;;4.63;1.90;;;12.20;99.90;;;;;;6277630;22;20073;-86
2022/10/30 07:17:31;;;;;;;5.68;2.47;;;12.20;99.90;;;;;;6275194;22;20011;-85
2022/10/30 07:19:57;;;;;;;6.35;2.80;;;12.10;99.90;;;;;;6277603;22;20027;-85
2022/10/30 07:22:23;;;;;;;5.28;2.50;;;12.10;99.90;;;;;;6278207;22;20012;-86
2022/10/30 07:24:49;;;;;;;8.45;2.85;;;12.10;99.90;;;;;;6275643;22;20027;-87
2022/10/30 07:27:14;;;;;;;3.85;2.10;;;13.00;99.90;;;;;;6276880;22;20039;-95
2022/10/30 07:29:40;;;;;;;5.55;2.58;;;12.20;99.90;;;;;;6277306;22;20016;-87
2022/10/30 07:32:05;;;;;;;6.45;2.35;;;12.20;99.90;;;;;;6277565;22;20019;-89
2022/10/30 07:34:31;;;;;;;4.90;2.40;;;12.20;99.90;;;;;;6277816;22;20403;-87
2022/10/30 07:36:57;;;;;;;6.40;3.05;;;12.30;99.90;;;;;;6277012;22;20019;-85
2022/10/30 07:39:23;;;;;;;7.70;2.72;;;12.30;99.90;;;;;;6275714;22;20016;-87
2022/10/30 07:41:49;;;;;;;6.35;3.05;;;12.40;99.90;;;;;;6277377;22;20461;-89
2022/10/30 07:44:15;;;;;;;5.15;2.33;;;12.50;99.90;;;;;;6277168;22;20015;-86
2022/10/30 07:46:40;;;;;;;4.20;1.92;;;13.00;99.90;;;;;;6275537;22;20016;-87
2022/10/30 07:49:06;;;;;;;2.92;1.80;;;12.60;99.90;;;;;;6276820;22;20077;-85
2022/10/30 07:51:32;;;;;;;6.18;3.00;;;12.70;99.90;;;;;;6275582;22;20066;-86
2022/10/30 07:53:57;;;;;;;5.20;2.22;;;12.90;99.90;;;;;;6277352;22;20074;-85
2022/10/30 07:56:23;;;;;;;7.22;2.30;;;13.70;99.90;;;;;;6250284;22;20026;-87
2022/10/30 07:58:49;;;;;;;6.30;3.55;;;13.00;99.90;;;;;;6277445;22;20050;-88
2022/10/30 08:01:14;;;;;;;5.53;2.75;;;13.00;99.90;;;;;;6277239;22;20439;-88
2022/10/30 08:03:40;;;;;;;5.30;2.90;;;13.10;99.90;;;;;;6277195;22;20020;-88
2022/10/30 08:06:06;;;;;;;9.43;3.33;;;13.20;99.90;;;;;;6277029;22;20307;-87
2022/10/30 08:08:31;;;;;;;5.53;3.03;;;13.30;99.90;;;;;;6277149;22;20134;-87
2022/10/30 08:10:57;;;;;;;7.97;3.85;;;13.30;99.90;;;;;;6249666;22;20082;-89
2022/10/30 08:13:23;;;;;;;11.02;4.28;;;13.40;99.90;;;;;;6251291;22;20087;-87
2022/10/30 08:15:49;;;;;;;10.77;4.38;;;13.60;99.90;;;;;;6249785;22;20077;-90
2022/10/30 08:18:14;;;;;;;7.05;4.03;;;13.50;99.90;;;;;;6277239;22;20016;-91
2022/10/30 08:20:40;;;;;;;11.80;5.68;;;13.70;99.90;;;;;;6277749;22;20026;-93
2022/10/30 08:23:06;;;;;;;11.52;5.10;;;13.70;99.90;;;;;;6276840;22;20050;-89
2022/10/30 08:25:32;;;;;;;6.47;3.63;;;13.80;99.90;;;;;;6275011;22;20023;-90
2022/10/30 08:28:02;;;;;;;5.90;3.58;;;13.90;99.90;;;;;;6276249;22;20087;-89
2022/10/30 08:30:31;;;;;;;7.95;3.90;;;14.00;99.90;;;;;;6276368;22;20464;-90
2022/10/30 08:33:02;;;;;;;10.93;5.60;;;14.00;99.90;;;;;;6276641;22;20034;-90
2022/10/30 08:35:27;;;;;;;15.00;6.55;;;14.10;99.90;;;;;;6249476;22;20023;-89
2022/10/30 08:37:57;;;;;;;9.30;4.15;;;14.20;99.90;;;;;;6249064;22;20030;-85
2022/10/30 08:40:24;;;;;;;9.05;4.22;;;14.30;99.90;;;;;;6276999;22;20011;-89
2022/10/30 08:42:51;;;;;;;7.10;3.30;;;14.30;99.90;;;;;;6276768;22;20027;-90
2022/10/30 08:45:17;;;;;;;6.07;2.83;;;14.50;99.90;;;;;;6249981;22;20442;-90
2022/10/30 08:47:43;;;;;;;6.97;3.58;;;14.40;99.90;;;;;;6274931;22;20077;-90
2022/10/30 08:50:09;;;;;;;5.53;2.63;;;14.50;99.90;;;;;;6276787;22;20012;-88
2022/10/30 08:52:34;;;;;;;5.85;3.17;;;14.60;99.90;;;;;;6276869;22;20422;-91
2022/10/30 08:55:00;;;;;;;6.75;3.05;;;14.70;99.90;;;;;;6276586;22;20043;-86
2022/10/30 08:57:26;;;;;;;5.72;3.63;;;14.70;99.90;;;;;;6276222;22;20016;-90
2022/10/30 08:59:52;;;;;;;6.25;3.13;;;14.80;99.90;;;;;;6276699;22;20345;-91
2022/10/30 09:02:18;;;;;;;12.05;5.68;;;14.90;99.90;;;;;;6276394;22;20060;-91
2022/10/30 09:04:43;;;;;;;9.13;4.32;;;15.00;99.90;;;;;;6276715;22;20089;-89
2022/10/30 09:07:09;;;;;;;6.25;3.60;;;15.00;99.90;;;;;;6276321;22;20020;-88
2022/10/30 09:09:35;;;;;;;8.02;4.13;;;15.10;99.90;;;;;;6276770;22;20023;-87
2022/10/30 09:12:00;;;;;;;7.55;3.88;;;15.60;99.90;;;;;;6249396;22;20352;-89
2022/10/30 09:14:26;;;;;;;7.15;3.65;;;15.30;99.90;;;;;;6276251;22;20334;-91
2022/10/30 09:16:53;;;;;;;12.02;4.55;;;15.40;99.90;;;;;;6276305;22;20020;-91
2022/10/30 09:19:19;;;;;;;7.55;4.57;;;15.40;99.90;;;;;;6276712;22;20039;-90
2022/10/30 09:21:45;;;;;;;4.93;3.00;;;15.50;99.90;;;;;;6276240;22;20019;-89
2022/10/30 09:24:10;;;;;;;4.22;2.55;;;15.60;99.90;;;;;;6276810;22;20385;-90
2022/10/30 09:26:36;;;;;;;9.77;5.20;;;15.70;99.90;;;;;;6274265;22;20024;-90
2022/10/30 09:29:02;;;;;;;6.07;3.60;;;15.80;99.90;;;;;;6274365;22;20020;-89
2022/10/30 09:31:27;;;;;;;8.15;3.33;;;15.80;99.90;;;;;;6274661;22;20103;-89
2022/10/30 09:33:53;;;;;;;6.13;3.10;;;15.90;99.90;;;;;;6275398;22;20095;-91
2022/10/30 09:36:19;;;;;;;4.13;2.28;;;16.00;99.90;;;;;;6276389;22;20016;-89
2022/10/30 09:38:44;;;;;;;4.45;2.35;;;16.10;99.90;;;;;;6249241;22;20434;-86
2022/10/30 09:41:25;;;;;;;3.20;2.00;;;16.10;99.90;;;;;;6276420;22;20095;-87
2022/10/30 09:44:03;;;;;;;5.90;1.98;;;16.20;99.90;;;;;;6274377;22;20319;-88
2022/10/30 09:46:48;;;;;;;4.28;2.45;;;16.40;99.90;;;;;;6276496;22;20012;-89
2022/10/30 09:49:55;;;;;;;7.65;2.88;;;16.40;99.90;;;;;;6276566;22;20342;-86
2022/10/30 09:52:28;;;;;;;6.32;2.70;;;16.50;99.90;;;;;;6123666;23;20393;-89
2022/10/30 09:55:04;;;;;;;6.47;3.13;;;16.70;99.90;;;;;;6123385;23;20029;-87
2022/10/30 09:57:42;;;;;;;4.82;2.47;;;16.80;99.90;;;;;;6122519;23;20018;-88
2022/10/30 10:00:12;;;;;;;4.85;2.67;;;16.90;99.90;;;;;;6123216;23;20018;-89
2022/10/30 10:02:47;;;;;;;5.28;2.45;;;16.90;99.90;;;;;;6123006;23;20014;-88
2022/10/30 10:05:22;;;;;;;6.28;3.28;;;17.10;99.90;;;;;;6123222;23;20441;-90
2022/10/30 10:07:53;;;;;;;9.77;3.70;;;17.20;99.90;;;;;;6122827;23;20010;-87
2022/10/30 10:10:31;;;;;;;7.95;3.40;;;17.20;99.90;;;;;;6122939;23;20022;-88
2022/10/30 10:12:58;;;;;;;7.10;3.47;;;17.30;99.90;;;;;;6122835;23;20080;-85
2022/10/30 10:15:47;;;;;;;4.40;2.95;;;17.30;99.90;;;;;;6123473;23;20018;-87
2022/10/30 10:18:22;;;;;;;4.82;2.25;;;17.40;99.90;;;;;;6122686;23;20026;-89
2022/10/30 10:20:51;;;;;;;3.90;2.10;;;17.40;99.90;;;;;;6123425;23;20028;-86
2022/10/30 10:23:25;;;;;;;3.38;1.88;;;17.40;99.90;;;;;;6122950;23;20449;-89
2022/10/30 10:25:53;;;;;;;2.78;1.38;;;17.50;99.90;;;;;;6098817;23;20022;-88
2022/10/30 10:28:37;;;;;;;3.10;1.60;;;17.60;99.90;;;;;;6132313;23;20049;-87
2022/10/30 10:35:27;;;;;;;3.65;1.98;;;17.90;99.90;;;;;;6211101;22;20067;-90
2022/10/30 10:38:47;;;;;;;4.13;2.25;;;18.50;99.90;;;;;;6216498;23;20021;-91
2022/10/30 11:11:52;;;;;;;3.33;1.83;;;19.00;99.90;;;;;;6224767;22;20095;-90
2022/10/30 11:46:59;;;;;;;4.25;1.08;;;19.80;99.90;;;;;;6219789;23;20101;-89
2022/10/30 11:49:33;;;;;;;1.52;0.90;;;19.90;99.90;;;;;;6198423;23;20051;-89
2022/10/30 11:52:25;;;;;;;3.30;1.00;;;20.00;99.90;;;;;;6220928;23;20080;-94
2022/10/30 12:11:07;;;;;;;7.35;1.75;;;20.00;99.90;;;;;;6213452;22;20021;31
2022/10/30 12:17:02;;;;;;;;;;;;;;;;;;;;;
2022/10/30 12:29:01;;;;;;;3.17;1.20;;;20.00;99.90;;;;;;6218342;23;20024;-89
2022/10/30 12:35:35;;;;;;;;;;;;;;;;;;;;;
2022/10/30 12:38:28;;;;;;;2.53;1.17;;;20.10;99.90;;;;;;6118885;23;20016;-90
2022/10/30 12:41:13;;;;;;;2.65;1.02;;;20.90;99.90;;;;;;6214244;23;20013;-87
2022/10/30 12:43:42;;;;;;;4.00;1.15;;;20.20;99.90;;;;;;6215564;23;20104;-85
2022/10/30 12:46:29;;;;;;;4.32;1.20;;;20.20;99.90;;;;;;6239595;23;20048;-88
2022/10/30 12:49:13;;;;;;;3.53;1.17;;;20.20;99.90;;;;;;6214659;23;20402;-86
2022/10/30 12:51:54;;;;;;;3.60;1.10;;;20.20;99.90;;;;;;6216335;23;20052;-86
2022/10/30 12:54:26;;;;;;;2.85;1.38;;;20.30;99.90;;;;;;6215133;23;20013;-85
2022/10/30 12:57:02;;;;;;;1.80;1.10;;;20.20;99.90;;;;;;6239853;23;20412;-86
2022/10/30 12:59:45;;;;;;;5.57;1.88;;;20.20;99.90;;;;;;6216459;23;20016;-86
2022/10/30 13:02:20;;;;;;;5.72;1.17;;;20.20;99.90;;;;;;6214590;23;20016;-86
2022/10/30 13:04:54;;;;;;;4.27;1.50;;;20.10;99.90;;;;;;6239003;23;20094;-87
2022/10/30 13:07:25;;;;;;;2.33;1.20;;;20.20;99.90;;;;;;6214328;23;20738;-85
2022/10/30 13:10:26;;;;;;;3.63;1.33;;;20.10;99.90;;;;;;6215527;23;20024;-86
2022/10/30 13:12:56;;;;;;;3.05;1.17;;;20.10;99.90;;;;;;6215743;23;20335;-87
2022/10/30 13:15:40;;;;;;;3.75;1.60;;;20.20;99.90;;;;;;6213714;23;20021;-86
2022/10/30 13:18:23;;;;;;;3.90;2.05;;;20.20;99.90;;;;;;6238813;23;20027;-86
2022/10/30 13:21:20;;;;;;;5.97;1.50;;;20.20;99.90;;;;;;6214326;23;20028;-85
2022/10/30 13:23:55;;;;;;;2.92;1.30;;;20.20;99.90;;;;;;6215260;23;20016;-86
2022/10/30 13:27:01;;;;;;;3.38;1.45;;;20.10;99.90;;;;;;6215050;23;20016;-86
2022/10/30 13:29:45;;;;;;;2.30;1.27;;;20.20;99.90;;;;;;6152641;23;20017;-85
2022/10/30 13:32:22;;;;;;;6.57;1.55;;;20.10;99.90;;;;;;6152737;23;20297;-85
2022/10/30 13:35:18;;;;;;;3.65;1.35;;;20.10;99.90;;;;;;6127462;23;20018;-85
2022/10/30 13:38:03;;;;;;;3.55;1.40;;;20.10;99.90;;;;;;6152856;23;20433;-86
2022/10/30 13:40:38;;;;;;;2.53;1.27;;;20.10;99.90;;;;;;6152821;23;20463;-85
2022/10/30 13:43:34;;;;;;;5.38;1.70;;;20.10;99.90;;;;;;6153169;23;20025;-86
2022/10/30 13:46:21;;;;;;;3.58;1.60;;;20.10;99.90;;;;;;6151801;23;20080;-86
2022/10/30 13:49:25;;;;;;;3.35;1.48;;;20.10;99.90;;;;;;6152838;23;20380;-85
2022/10/30 13:52:13;;;;;;;2.78;1.92;;;20.10;99.90;;;;;;6153143;23;20030;-90
2022/10/30 13:55:04;;;;;;;4.90;1.65;;;20.10;99.90;;;;;;6127479;23;20021;-85
2022/10/30 13:57:48;;;;;;;4.40;1.33;;;20.10;99.90;;;;;;6127787;23;20089;-86
2022/10/30 14:00:47;;;;;;;4.03;1.40;;;20.10;99.90;;;;;;6152654;23;20487;-87
2022/10/30 14:03:20;;;;;;;3.45;2.05;;;20.10;99.90;;;;;;6127881;23;20072;-86
2022/10/30 14:06:06;;;;;;;4.32;1.50;;;20.10;99.90;;;;;;6145255;23;20075;-86
2022/10/30 14:08:38;;;;;;;2.72;1.63;;;20.10;99.90;;;;;;6187937;23;20025;-87
2022/10/30 14:11:11;;;;;;;5.68;1.90;;;20.00;99.90;;;;;;6213488;23;20043;-87
2022/10/30 14:13:45;;;;;;;4.75;1.30;;;20.00;99.90;;;;;;6213582;23;20348;-86
2022/10/30 14:16:34;;;;;;;4.10;1.60;;;20.00;99.90;;;;;;6189450;23;20040;-87
2022/10/30 14:19:13;;;;;;;4.38;1.73;;;19.90;99.90;;;;;;6178459;23;20442;-87
2022/10/30 14:21:40;;;;;;;4.00;2.00;;;19.90;99.90;;;;;;6217180;23;20021;-87
2022/10/30 14:24:18;;;;;;;4.20;1.83;;;19.80;99.90;;;;;;6217189;23;20066;-86
2022/10/30 14:26:49;;;;;;;4.55;1.60;;;19.80;99.90;;;;;;6215194;23;20102;-86
2022/10/30 14:29:41;;;;;;;4.65;1.60;;;19.70;99.90;;;;;;6165735;23;20017;-87
2022/10/30 14:32:12;;;;;;;4.07;1.60;;;19.70;99.90;;;;;;6100454;23;20022;-86
2022/10/30 14:34:51;;;;;;;3.40;1.80;;;19.60;99.90;;;;;;6123877;23;20026;-87
2022/10/30 14:37:43;;;;;;;5.78;1.70;;;19.50;99.90;;;;;;6100679;23;20057;-86
2022/10/30 14:40:30;;;;;;;6.85;1.90;;;19.50;99.90;;;;;;6009960;23;20024;-88
2022/10/30 14:43:01;;;;;;;5.82;2.42;;;19.40;99.90;;;;;;5986047;23;20024;-86
2022/10/30 14:45:42;;;;;;;3.03;1.77;;;19.40;99.90;;;;;;6009139;23;20026;-88
2022/10/30 14:48:15;;;;;;;4.65;1.63;;;19.30;99.90;;;;;;5986634;23;20047;-87
2022/10/30 14:50:58;;;;;;;3.25;1.70;;;19.30;99.90;;;;;;6009802;23;20031;-87
2022/10/30 14:53:45;;;;;;;2.90;1.45;;;19.20;99.90;;;;;;5985398;23;20078;-87